sensor_id;sensor_type;location;lat;lon;timestamp;pressure;altitude;pressure_sealevel;temperature;humidity
62946;BME280;52164;52.212;-1.010;2023-04-01T00:00:05;98955.90;;;9.40;83.67
62946;BME280;52164;52.212;-1.010;2023-04-01T00:02:34;98954.16;;;9.38;83.90
62946;BME280;52164;52.212;-1.010;2023-04-01T00:05:00;98962.89;;;9.38;83.90
62946;BME280;52164;52.212;-1.010;2023-04-01T00:07:27;98965.94;;;9.37;84.05
62946;BME280;52164;52.212;-1.010;2023-04-01T00:09:53;98965.08;;;9.35;83.92
62946;BME280;52164;52.212;-1.010;2023-04-01T00:12:18;98974.02;;;9.33;83.99
62946;BME280;52164;52.212;-1.010;2023-04-01T00:14:44;98975.67;;;9.30;83.80
62946;BME280;52164;52.212;-1.010;2023-04-01T00:17:09;98975.90;;;9.27;84.11
62946;BME280;52164;52.212;-1.010;2023-04-01T00:19:36;98980.38;;;9.26;84.20
62946;BME280;52164;52.212;-1.010;2023-04-01T00:22:02;98980.05;;;9.25;84.40
62946;BME280;52164;52.212;-1.010;2023-04-01T00:24:28;98987.14;;;9.26;84.36
62946;BME280;52164;52.212;-1.010;2023-04-01T00:26:54;98985.16;;;9.27;84.32
62946;BME280;52164;52.212;-1.010;2023-04-01T00:29:19;98990.14;;;9.28;84.55
62946;BME280;52164;52.212;-1.010;2023-04-01T00:31:46;98993.81;;;9.32;84.86
62946;BME280;52164;52.212;-1.010;2023-04-01T00:34:12;98995.31;;;9.37;84.67
62946;BME280;52164;52.212;-1.010;2023-04-01T00:36:37;99001.13;;;9.40;84.58
62946;BME280;52164;52.212;-1.010;2023-04-01T00:39:03;98998.94;;;9.42;84.81
62946;BME280;52164;52.212;-1.010;2023-04-01T00:41:28;98999.61;;;9.45;84.32
62946;BME280;52164;52.212;-1.010;2023-04-01T00:44:12;98999.05;;;9.46;84.53
62946;BME280;52164;52.212;-1.010;2023-04-01T00:46:39;99005.27;;;9.46;84.31
62946;BME280;52164;52.212;-1.010;2023-04-01T00:49:04;99003.17;;;9.45;84.03
62946;BME280;52164;52.212;-1.010;2023-04-01T00:51:29;99009.60;;;9.44;84.23
62946;BME280;52164;52.212;-1.010;2023-04-01T00:53:56;99009.77;;;9.44;84.03
62946;BME280;52164;52.212;-1.010;2023-04-01T00:56:25;99019.42;;;9.42;83.81
62946;BME280;52164;52.212;-1.010;2023-04-01T00:59:00;99018.23;;;9.39;83.77
62946;BME280;52164;52.212;-1.010;2023-04-01T01:01:27;99021.12;;;9.37;83.79
62946;BME280;52164;52.212;-1.010;2023-04-01T01:03:54;99022.04;;;9.36;83.78
62946;BME280;52164;52.212;-1.010;2023-04-01T01:06:55;99024.36;;;9.36;83.60
62946;BME280;52164;52.212;-1.010;2023-04-01T01:09:16;99029.71;;;9.35;83.61
62946;BME280;52164;52.212;-1.010;2023-04-01T01:11:48;99032.36;;;9.36;83.30
62946;BME280;52164;52.212;-1.010;2023-04-01T01:14:20;99034.66;;;9.37;83.40
62946;BME280;52164;52.212;-1.010;2023-04-01T01:16:52;99037.48;;;9.38;83.35
62946;BME280;52164;52.212;-1.010;2023-04-01T01:20:31;99041.89;;;9.40;83.27
62946;BME280;52164;52.212;-1.010;2023-04-01T01:22:16;99038.52;;;9.40;83.32
62946;BME280;52164;52.212;-1.010;2023-04-01T01:27:12;99040.73;;;9.35;83.27
62946;BME280;52164;52.212;-1.010;2023-04-01T01:29:59;99047.86;;;9.35;83.34
62946;BME280;52164;52.212;-1.010;2023-04-01T01:32:38;99052.37;;;9.32;83.46
62946;BME280;52164;52.212;-1.010;2023-04-01T01:35:31;99057.91;;;9.31;83.55
62946;BME280;52164;52.212;-1.010;2023-04-01T01:37:54;99064.36;;;9.29;83.36
62946;BME280;52164;52.212;-1.010;2023-04-01T01:40:21;99062.45;;;9.26;83.58
62946;BME280;52164;52.212;-1.010;2023-04-01T01:42:48;99066.98;;;9.22;83.30
62946;BME280;52164;52.212;-1.010;2023-04-01T01:45:16;99070.05;;;9.19;83.40
62946;BME280;52164;52.212;-1.010;2023-04-01T01:47:44;99073.67;;;9.15;83.38
62946;BME280;52164;52.212;-1.010;2023-04-01T01:50:11;99076.35;;;9.15;83.54
62946;BME280;52164;52.212;-1.010;2023-04-01T01:52:37;99080.45;;;9.14;83.39
62946;BME280;52164;52.212;-1.010;2023-04-01T01:55:02;99081.70;;;9.14;83.48
62946;BME280;52164;52.212;-1.010;2023-04-01T01:57:29;99087.05;;;9.13;83.22
62946;BME280;52164;52.212;-1.010;2023-04-01T01:59:58;99088.30;;;9.13;83.36
62946;BME280;52164;52.212;-1.010;2023-04-01T02:02:28;99090.23;;;9.14;83.49
62946;BME280;52164;52.212;-1.010;2023-04-01T02:04:56;99096.46;;;9.15;83.48
62946;BME280;52164;52.212;-1.010;2023-04-01T02:07:24;99101.10;;;9.14;83.50
62946;BME280;52164;52.212;-1.010;2023-04-01T02:09:53;99106.25;;;9.16;83.25
62946;BME280;52164;52.212;-1.010;2023-04-01T02:12:19;99112.29;;;9.16;83.18
62946;BME280;52164;52.212;-1.010;2023-04-01T02:14:50;99117.50;;;9.13;83.31
62946;BME280;52164;52.212;-1.010;2023-04-01T02:17:19;99121.83;;;9.09;83.15
62946;BME280;52164;52.212;-1.010;2023-04-01T02:22:13;99126.58;;;9.02;82.72
62946;BME280;52164;52.212;-1.010;2023-04-01T02:24:41;99124.33;;;8.97;82.62
62946;BME280;52164;52.212;-1.010;2023-04-01T02:27:09;99127.96;;;8.93;82.72
62946;BME280;52164;52.212;-1.010;2023-04-01T02:29:35;99126.59;;;8.89;82.92
62946;BME280;52164;52.212;-1.010;2023-04-01T02:32:00;99125.21;;;8.86;83.02
62946;BME280;52164;52.212;-1.010;2023-04-01T02:34:27;99127.42;;;8.82;82.74
62946;BME280;52164;52.212;-1.010;2023-04-01T02:36:52;99130.13;;;8.78;82.81
62946;BME280;52164;52.212;-1.010;2023-04-01T02:39:20;99129.99;;;8.76;82.90
62946;BME280;52164;52.212;-1.010;2023-04-01T02:41:46;99135.70;;;8.75;83.08
62946;BME280;52164;52.212;-1.010;2023-04-01T02:44:13;99137.31;;;8.75;83.26
62946;BME280;52164;52.212;-1.010;2023-04-01T02:46:39;99136.59;;;8.75;83.19
62946;BME280;52164;52.212;-1.010;2023-04-01T02:49:04;99142.80;;;8.77;83.09
62946;BME280;52164;52.212;-1.010;2023-04-01T02:51:31;99141.01;;;8.77;83.42
62946;BME280;52164;52.212;-1.010;2023-04-01T02:53:57;99140.27;;;8.79;83.36
62946;BME280;52164;52.212;-1.010;2023-04-01T02:56:23;99142.75;;;8.79;83.51
62946;BME280;52164;52.212;-1.010;2023-04-01T02:58:53;99143.81;;;8.80;83.31
62946;BME280;52164;52.212;-1.010;2023-04-01T03:01:19;99144.47;;;8.83;83.72
62946;BME280;52164;52.212;-1.010;2023-04-01T03:03:45;99147.46;;;8.86;83.88
62946;BME280;52164;52.212;-1.010;2023-04-01T03:06:11;99150.44;;;8.89;83.77
62946;BME280;52164;52.212;-1.010;2023-04-01T03:08:37;99149.34;;;8.92;83.67
62946;BME280;52164;52.212;-1.010;2023-04-01T03:11:02;99154.30;;;8.92;83.54
62946;BME280;52164;52.212;-1.010;2023-04-01T03:13:30;99156.08;;;8.93;83.53
62946;BME280;52164;52.212;-1.010;2023-04-01T03:15:55;99158.39;;;8.93;83.42
62946;BME280;52164;52.212;-1.010;2023-04-01T03:18:21;99164.10;;;8.91;83.30
62946;BME280;52164;52.212;-1.010;2023-04-01T03:20:46;99169.48;;;8.89;83.01
62946;BME280;52164;52.212;-1.010;2023-04-01T03:23:12;99169.54;;;8.84;82.98
62946;BME280;52164;52.212;-1.010;2023-04-01T03:25:37;99174.95;;;8.80;82.93
62946;BME280;52164;52.212;-1.010;2023-04-01T03:28:03;99176.96;;;8.75;82.48
62946;BME280;52164;52.212;-1.010;2023-04-01T03:30:29;99182.54;;;8.70;82.43
62946;BME280;52164;52.212;-1.010;2023-04-01T03:32:59;99184.92;;;8.66;82.40
62946;BME280;52164;52.212;-1.010;2023-04-01T03:35:25;99183.21;;;8.61;82.59
62946;BME280;52164;52.212;-1.010;2023-04-01T03:37:53;99183.24;;;8.58;82.43
62946;BME280;52164;52.212;-1.010;2023-04-01T03:40:19;99191.08;;;8.56;82.39
62946;BME280;52164;52.212;-1.010;2023-04-01T03:42:44;99194.17;;;8.52;82.21
62946;BME280;52164;52.212;-1.010;2023-04-01T03:45:10;99198.80;;;8.51;82.06
62946;BME280;52164;52.212;-1.010;2023-04-01T03:47:37;99197.56;;;8.51;82.41
62946;BME280;52164;52.212;-1.010;2023-04-01T03:50:02;99200.92;;;8.53;82.28
62946;BME280;52164;52.212;-1.010;2023-04-01T03:52:27;99205.70;;;8.55;82.44
62946;BME280;52164;52.212;-1.010;2023-04-01T03:54:52;99201.77;;;8.56;82.27
62946;BME280;52164;52.212;-1.010;2023-04-01T03:57:18;99205.63;;;8.60;82.24
62946;BME280;52164;52.212;-1.010;2023-04-01T03:59:43;99206.84;;;8.62;82.24
62946;BME280;52164;52.212;-1.010;2023-04-01T04:02:08;99214.85;;;8.62;82.28
62946;BME280;52164;52.212;-1.010;2023-04-01T04:04:34;99210.55;;;8.63;82.20
62946;BME280;52164;52.212;-1.010;2023-04-01T04:06:59;99216.60;;;8.64;82.13
62946;BME280;52164;52.212;-1.010;2023-04-01T04:09:24;99216.79;;;8.64;82.23
62946;BME280;52164;52.212;-1.010;2023-04-01T04:11:50;99220.33;;;8.64;81.87
62946;BME280;52164;52.212;-1.010;2023-04-01T04:14:15;99223.38;;;8.62;81.82
62946;BME280;52164;52.212;-1.010;2023-04-01T04:16:41;99228.58;;;8.60;81.72
62946;BME280;52164;52.212;-1.010;2023-04-01T04:19:06;99228.42;;;8.57;81.65
62946;BME280;52164;52.212;-1.010;2023-04-01T04:21:32;99230.08;;;8.54;81.52
62946;BME280;52164;52.212;-1.010;2023-04-01T04:23:58;99235.65;;;8.49;81.61
62946;BME280;52164;52.212;-1.010;2023-04-01T04:26:25;99235.67;;;8.45;81.59
62946;BME280;52164;52.212;-1.010;2023-04-01T04:28:50;99243.16;;;8.40;81.55
62946;BME280;52164;52.212;-1.010;2023-04-01T04:31:19;99243.39;;;8.36;81.65
62946;BME280;52164;52.212;-1.010;2023-04-01T04:33:46;99248.06;;;8.33;81.44
62946;BME280;52164;52.212;-1.010;2023-04-01T04:36:11;99252.02;;;8.28;81.62
62946;BME280;52164;52.212;-1.010;2023-04-01T04:38:38;99251.89;;;8.23;81.54
62946;BME280;52164;52.212;-1.010;2023-04-01T04:41:08;99247.31;;;8.20;81.91
62946;BME280;52164;52.212;-1.010;2023-04-01T04:43:33;99248.21;;;8.20;81.96
62946;BME280;52164;52.212;-1.010;2023-04-01T04:45:58;99252.29;;;8.21;81.84
62946;BME280;52164;52.212;-1.010;2023-04-01T04:48:23;99254.25;;;8.19;82.24
62946;BME280;52164;52.212;-1.010;2023-04-01T04:50:49;99263.67;;;8.19;81.68
62946;BME280;52164;52.212;-1.010;2023-04-01T04:53:15;99270.60;;;8.20;82.11
62946;BME280;52164;52.212;-1.010;2023-04-01T04:55:44;99271.13;;;8.20;82.16
62946;BME280;52164;52.212;-1.010;2023-04-01T04:58:10;99277.34;;;8.21;81.76
62946;BME280;52164;52.212;-1.010;2023-04-01T05:00:35;99280.52;;;8.22;81.95
62946;BME280;52164;52.212;-1.010;2023-04-01T05:03:01;99284.75;;;8.25;82.16
62946;BME280;52164;52.212;-1.010;2023-04-01T05:05:26;99285.80;;;8.26;82.03
62946;BME280;52164;52.212;-1.010;2023-04-01T05:07:52;99290.43;;;8.27;82.06
62946;BME280;52164;52.212;-1.010;2023-04-01T05:10:17;99290.41;;;8.28;81.73
62946;BME280;52164;52.212;-1.010;2023-04-01T05:12:42;99289.67;;;8.30;81.91
62946;BME280;52164;52.212;-1.010;2023-04-01T05:15:11;99293.05;;;8.31;81.81
62946;BME280;52164;52.212;-1.010;2023-04-01T05:17:36;99298.38;;;8.32;81.39
62946;BME280;52164;52.212;-1.010;2023-04-01T05:20:01;99303.38;;;8.30;81.51
62946;BME280;52164;52.212;-1.010;2023-04-01T05:22:27;99304.80;;;8.29;81.54
62946;BME280;52164;52.212;-1.010;2023-04-01T05:24:53;99311.37;;;8.29;81.52
62946;BME280;52164;52.212;-1.010;2023-04-01T05:27:18;99316.18;;;8.28;81.40
62946;BME280;52164;52.212;-1.010;2023-04-01T05:29:43;99317.62;;;8.27;81.72
62946;BME280;52164;52.212;-1.010;2023-04-01T05:32:08;99321.90;;;8.26;81.68
62946;BME280;52164;52.212;-1.010;2023-04-01T05:34:34;99323.34;;;8.24;81.65
62946;BME280;52164;52.212;-1.010;2023-04-01T05:36:59;99328.71;;;8.20;81.28
62946;BME280;52164;52.212;-1.010;2023-04-01T05:39:25;99332.30;;;8.16;81.30
62946;BME280;52164;52.212;-1.010;2023-04-01T05:41:51;99333.41;;;8.11;81.28
62946;BME280;52164;52.212;-1.010;2023-04-01T05:44:16;99335.94;;;8.06;81.15
62946;BME280;52164;52.212;-1.010;2023-04-01T05:46:41;99336.14;;;8.02;81.68
62946;BME280;52164;52.212;-1.010;2023-04-01T05:49:07;99335.80;;;8.02;81.60
62946;BME280;52164;52.212;-1.010;2023-04-01T05:51:32;99341.48;;;8.02;81.77
62946;BME280;52164;52.212;-1.010;2023-04-01T05:53:57;99348.04;;;8.04;81.81
62946;BME280;52164;52.212;-1.010;2023-04-01T05:56:23;99351.06;;;8.05;81.70
62946;BME280;52164;52.212;-1.010;2023-04-01T05:58:50;99353.89;;;8.06;81.49
62946;BME280;52164;52.212;-1.010;2023-04-01T06:01:15;99355.48;;;8.07;81.78
62946;BME280;52164;52.212;-1.010;2023-04-01T06:03:41;99358.84;;;8.10;82.12
62946;BME280;52164;52.212;-1.010;2023-04-01T06:06:11;99362.17;;;8.14;81.96
62946;BME280;52164;52.212;-1.010;2023-04-01T06:08:38;99363.73;;;8.18;82.06
62946;BME280;52164;52.212;-1.010;2023-04-01T06:11:07;99365.13;;;8.21;81.78
62946;BME280;52164;52.212;-1.010;2023-04-01T06:16:14;99368.99;;;8.27;81.92
62946;BME280;52164;52.212;-1.010;2023-04-01T06:23:45;99376.49;;;8.24;81.31
62946;BME280;52164;52.212;-1.010;2023-04-01T06:26:18;99377.60;;;8.20;81.51
62946;BME280;52164;52.212;-1.010;2023-04-01T06:28:52;99383.46;;;8.17;81.31
62946;BME280;52164;52.212;-1.010;2023-04-01T06:31:33;99385.45;;;8.15;81.31
62946;BME280;52164;52.212;-1.010;2023-04-01T06:34:08;99387.24;;;8.13;81.19
62946;BME280;52164;52.212;-1.010;2023-04-01T06:41:39;99389.21;;;8.10;81.47
62946;BME280;52164;52.212;-1.010;2023-04-01T06:46:41;99395.10;;;8.09;81.54
62946;BME280;52164;52.212;-1.010;2023-04-01T06:49:21;99394.04;;;8.08;81.35
62946;BME280;52164;52.212;-1.010;2023-04-01T06:51:57;99397.05;;;8.09;81.38
62946;BME280;52164;52.212;-1.010;2023-04-01T06:56:53;99409.45;;;8.14;81.19
62946;BME280;52164;52.212;-1.010;2023-04-01T06:59:21;99411.05;;;8.15;81.04
62946;BME280;52164;52.212;-1.010;2023-04-01T07:01:51;99413.33;;;8.17;81.12
62946;BME280;52164;52.212;-1.010;2023-04-01T07:04:19;99417.92;;;8.20;81.16
62946;BME280;52164;52.212;-1.010;2023-04-01T07:06:48;99423.58;;;8.25;80.97
62946;BME280;52164;52.212;-1.010;2023-04-01T07:09:18;99425.84;;;8.32;81.07
62946;BME280;52164;52.212;-1.010;2023-04-01T07:11:44;99425.80;;;8.36;81.07
62946;BME280;52164;52.212;-1.010;2023-04-01T07:14:13;99428.61;;;8.39;80.93
62946;BME280;52164;52.212;-1.010;2023-04-01T07:16:42;99434.10;;;8.43;80.84
62946;BME280;52164;52.212;-1.010;2023-04-01T07:21:35;99438.73;;;8.45;80.27
62946;BME280;52164;52.212;-1.010;2023-04-01T07:24:06;99442.64;;;8.46;80.73
62946;BME280;52164;52.212;-1.010;2023-04-01T07:26:35;99450.80;;;8.48;80.60
62946;BME280;52164;52.212;-1.010;2023-04-01T07:29:00;99448.99;;;8.52;80.66
62946;BME280;52164;52.212;-1.010;2023-04-01T07:34:19;99449.13;;;8.56;80.13
62946;BME280;52164;52.212;-1.010;2023-04-01T07:36:48;99453.19;;;8.59;80.06
62946;BME280;52164;52.212;-1.010;2023-04-01T07:41:49;99459.98;;;8.54;79.97
62946;BME280;52164;52.212;-1.010;2023-04-01T07:44:31;99470.66;;;8.54;79.56
62946;BME280;52164;52.212;-1.010;2023-04-01T07:47:05;99474.79;;;8.51;79.78
62946;BME280;52164;52.212;-1.010;2023-04-01T07:52:21;99485.14;;;8.45;79.92
62946;BME280;52164;52.212;-1.010;2023-04-01T07:54:52;99486.56;;;8.42;79.62
62946;BME280;52164;52.212;-1.010;2023-04-01T07:57:27;99493.67;;;8.41;79.45
62946;BME280;52164;52.212;-1.010;2023-04-01T08:00:13;99498.45;;;8.43;80.04
62946;BME280;52164;52.212;-1.010;2023-04-01T08:03:16;99500.08;;;8.43;79.45
62946;BME280;52164;52.212;-1.010;2023-04-01T08:05:27;99502.20;;;8.46;79.62
62946;BME280;52164;52.212;-1.010;2023-04-01T08:08:12;99506.07;;;8.54;79.42
62946;BME280;52164;52.212;-1.010;2023-04-01T08:15:36;99517.53;;;8.64;79.20
62946;BME280;52164;52.212;-1.010;2023-04-01T08:18:12;99518.08;;;8.64;79.11
62946;BME280;52164;52.212;-1.010;2023-04-01T08:20:50;99528.55;;;8.66;78.82
62946;BME280;52164;52.212;-1.010;2023-04-01T08:23:17;99530.34;;;8.65;78.82
62946;BME280;52164;52.212;-1.010;2023-04-01T08:28:32;99541.02;;;8.62;78.18
62946;BME280;52164;52.212;-1.010;2023-04-01T08:31:02;99545.29;;;8.61;78.75
62946;BME280;52164;52.212;-1.010;2023-04-01T08:33:30;99551.36;;;8.60;78.59
62946;BME280;52164;52.212;-1.010;2023-04-01T08:36:02;99556.88;;;8.59;78.27
62946;BME280;52164;52.212;-1.010;2023-04-01T08:38:30;99560.23;;;8.62;78.14
62946;BME280;52164;52.212;-1.010;2023-04-01T08:41:00;99558.38;;;8.73;78.13
62946;BME280;52164;52.212;-1.010;2023-04-01T08:43:47;99559.52;;;8.85;78.08
62946;BME280;52164;52.212;-1.010;2023-04-01T08:46:15;99563.36;;;8.95;77.60
62946;BME280;52164;52.212;-1.010;2023-04-01T08:52:36;99571.00;;;9.17;77.64
62946;BME280;52164;52.212;-1.010;2023-04-01T08:59:13;99581.07;;;9.59;77.16
62946;BME280;52164;52.212;-1.010;2023-04-01T09:06:44;99589.98;;;10.05;75.94
62946;BME280;52164;52.212;-1.010;2023-04-01T09:09:34;99594.32;;;10.15;75.53
62946;BME280;52164;52.212;-1.010;2023-04-01T09:14:21;99595.63;;;10.24;75.16
62946;BME280;52164;52.212;-1.010;2023-04-01T09:22:18;99597.41;;;10.52;74.36
62946;BME280;52164;52.212;-1.010;2023-04-01T09:22:50;99601.96;;;10.58;74.01
62946;BME280;52164;52.212;-1.010;2023-04-01T09:27:56;99607.81;;;10.60;73.66
62946;BME280;52164;52.212;-1.010;2023-04-01T09:32:52;99608.01;;;10.60;73.47
62946;BME280;52164;52.212;-1.010;2023-04-01T09:33:17;99606.48;;;10.55;73.18
62946;BME280;52164;52.212;-1.010;2023-04-01T09:35:48;99610.59;;;10.53;73.17
62946;BME280;52164;52.212;-1.010;2023-04-01T09:40:48;99613.85;;;10.63;72.89
62946;BME280;52164;52.212;-1.010;2023-04-01T09:44:10;99614.00;;;10.77;72.78
62946;BME280;52164;52.212;-1.010;2023-04-01T09:48:34;99617.00;;;11.02;72.26
62946;BME280;52164;52.212;-1.010;2023-04-01T09:52:12;99619.55;;;11.09;72.13
62946;BME280;52164;52.212;-1.010;2023-04-01T09:54:24;99622.91;;;11.11;71.78
62946;BME280;52164;52.212;-1.010;2023-04-01T09:56:53;99627.33;;;11.03;71.81
62946;BME280;52164;52.212;-1.010;2023-04-01T09:59:24;99632.28;;;10.96;72.15
62946;BME280;52164;52.212;-1.010;2023-04-01T10:02:20;99636.73;;;10.84;72.28
62946;BME280;52164;52.212;-1.010;2023-04-01T10:15:13;99666.71;;;10.72;72.25
62946;BME280;52164;52.212;-1.010;2023-04-01T10:17:51;99670.05;;;10.76;71.97
62946;BME280;52164;52.212;-1.010;2023-04-01T10:25:37;99685.69;;;10.68;72.08
62946;BME280;52164;52.212;-1.010;2023-04-01T10:28:13;99690.47;;;10.70;71.96
62946;BME280;52164;52.212;-1.010;2023-04-01T10:36:28;99698.26;;;10.75;72.02
62946;BME280;52164;52.212;-1.010;2023-04-01T10:36:53;99698.25;;;10.77;72.12
62946;BME280;52164;52.212;-1.010;2023-04-01T10:41:30;99704.14;;;10.76;71.70
62946;BME280;52164;52.212;-1.010;2023-04-01T10:44:08;99707.51;;;10.78;71.48
62946;BME280;52164;52.212;-1.010;2023-04-01T10:46:45;99710.70;;;10.79;71.70
62946;BME280;52164;52.212;-1.010;2023-04-01T10:54:47;99720.92;;;10.75;71.76
62946;BME280;52164;52.212;-1.010;2023-04-01T11:07:09;99726.63;;;11.14;71.47
62946;BME280;52164;52.212;-1.010;2023-04-01T11:09:51;99729.55;;;11.21;71.25
62946;BME280;52164;52.212;-1.010;2023-04-01T11:12:46;99735.36;;;11.27;71.18
62946;BME280;52164;52.212;-1.010;2023-04-01T11:15:21;99740.66;;;11.32;70.82
62946;BME280;52164;52.212;-1.010;2023-04-01T11:17:55;99744.19;;;11.34;70.48
62946;BME280;52164;52.212;-1.010;2023-04-01T11:20:34;99746.85;;;11.35;70.17
62946;BME280;52164;52.212;-1.010;2023-04-01T11:25:42;99752.52;;;11.26;69.95
62946;BME280;52164;52.212;-1.010;2023-04-01T11:28:17;99758.55;;;11.29;69.99
62946;BME280;52164;52.212;-1.010;2023-04-01T11:30:59;99760.77;;;11.36;69.34
62946;BME280;52164;52.212;-1.010;2023-04-01T11:33:38;99766.15;;;11.34;69.42
62946;BME280;52164;52.212;-1.010;2023-04-01T11:36:11;99771.73;;;11.32;69.66
62946;BME280;52164;52.212;-1.010;2023-04-01T11:38:52;99777.11;;;11.30;69.32
62946;BME280;52164;52.212;-1.010;2023-04-01T11:41:40;99784.84;;;11.27;69.33
62946;BME280;52164;52.212;-1.010;2023-04-01T11:44:23;99792.70;;;11.27;69.38
62946;BME280;52164;52.212;-1.010;2023-04-01T11:49:07;99792.84;;;11.29;69.23
62946;BME280;52164;52.212;-1.010;2023-04-01T11:54:39;99802.44;;;11.69;68.50
62946;BME280;52164;52.212;-1.010;2023-04-01T11:57:21;99807.34;;;11.74;68.64
62946;BME280;52164;52.212;-1.010;2023-04-01T12:02:27;99819.95;;;11.69;68.20
62946;BME280;52164;52.212;-1.010;2023-04-01T12:05:01;99824.21;;;11.71;68.31
62946;BME280;52164;52.212;-1.010;2023-04-01T12:10:19;99829.41;;;11.82;68.42
62946;BME280;52164;52.212;-1.010;2023-04-01T12:12:57;99833.63;;;11.86;68.41
62946;BME280;52164;52.212;-1.010;2023-04-01T12:15:29;99836.08;;;11.89;67.80
62946;BME280;52164;52.212;-1.010;2023-04-01T12:18:05;99836.04;;;11.91;68.02
62946;BME280;52164;52.212;-1.010;2023-04-01T12:23:08;99845.08;;;11.86;67.62
62946;BME280;52164;52.212;-1.010;2023-04-01T12:25:47;99850.48;;;11.84;67.63
62946;BME280;52164;52.212;-1.010;2023-04-01T12:38:25;99871.39;;;11.84;67.31
62946;BME280;52164;52.212;-1.010;2023-04-01T12:42:17;99873.40;;;11.82;67.12
62946;BME280;52164;52.212;-1.010;2023-04-01T12:44:00;99874.77;;;11.73;66.99
62946;BME280;52164;52.212;-1.010;2023-04-01T12:48:59;99878.43;;;11.67;67.29
62946;BME280;52164;52.212;-1.010;2023-04-01T12:51:37;99885.97;;;11.65;67.44
62946;BME280;52164;52.212;-1.010;2023-04-01T12:58:48;99891.89;;;11.63;67.11
62946;BME280;52164;52.212;-1.010;2023-04-01T12:59:23;99889.88;;;11.67;67.51
62946;BME280;52164;52.212;-1.010;2023-04-01T13:06:53;99902.14;;;11.59;67.42
62946;BME280;52164;52.212;-1.010;2023-04-01T13:09:30;99902.19;;;11.55;67.47
62946;BME280;52164;52.212;-1.010;2023-04-01T13:17:03;99919.52;;;11.68;67.85
62946;BME280;52164;52.212;-1.010;2023-04-01T13:19:36;99924.29;;;11.72;67.37
62946;BME280;52164;52.212;-1.010;2023-04-01T13:24:54;99926.98;;;11.84;67.04
62946;BME280;52164;52.212;-1.010;2023-04-01T13:27:29;99930.83;;;11.78;67.10
62946;BME280;52164;52.212;-1.010;2023-04-01T13:30:20;99931.65;;;11.70;66.92
62946;BME280;52164;52.212;-1.010;2023-04-01T13:33:01;99938.91;;;11.61;66.87
62946;BME280;52164;52.212;-1.010;2023-04-01T13:35:46;99941.30;;;11.57;66.69
62946;BME280;52164;52.212;-1.010;2023-04-01T13:43:14;99951.41;;;11.48;66.74
62946;BME280;52164;52.212;-1.010;2023-04-01T13:50:55;99959.23;;;11.23;66.77
62946;BME280;52164;52.212;-1.010;2023-04-01T13:53:22;99969.42;;;11.05;66.74
62946;BME280;52164;52.212;-1.010;2023-04-01T13:56:07;99975.21;;;10.98;67.13
62946;BME280;52164;52.212;-1.010;2023-04-01T14:01:09;99983.80;;;10.98;67.28
62946;BME280;52164;52.212;-1.010;2023-04-01T14:03:50;99983.20;;;11.02;67.50
62946;BME280;52164;52.212;-1.010;2023-04-01T14:07:40;99986.73;;;11.07;67.41
62946;BME280;52164;52.212;-1.010;2023-04-01T14:09:15;99981.33;;;11.11;67.19
62946;BME280;52164;52.212;-1.010;2023-04-01T14:12:06;99983.41;;;11.16;67.01
62946;BME280;52164;52.212;-1.010;2023-04-01T14:17:51;99988.68;;;11.26;66.49
62946;BME280;52164;52.212;-1.010;2023-04-01T14:20:06;99996.15;;;11.27;66.73
62946;BME280;52164;52.212;-1.010;2023-04-01T14:22:42;100002.05;;;11.27;66.68
62946;BME280;52164;52.212;-1.010;2023-04-01T14:26:24;100006.53;;;11.26;66.62
62946;BME280;52164;52.212;-1.010;2023-04-01T14:28:03;100015.67;;;11.23;66.68
62946;BME280;52164;52.212;-1.010;2023-04-01T14:30:54;100022.38;;;11.14;66.55
62946;BME280;52164;52.212;-1.010;2023-04-01T14:33:25;100027.63;;;11.05;66.57
62946;BME280;52164;52.212;-1.010;2023-04-01T14:36:04;100031.99;;;10.98;66.69
62946;BME280;52164;52.212;-1.010;2023-04-01T14:39:00;100040.80;;;10.91;66.55
62946;BME280;52164;52.212;-1.010;2023-04-01T14:41:20;100044.76;;;10.88;66.72
62946;BME280;52164;52.212;-1.010;2023-04-01T14:46:23;100053.18;;;10.85;65.95
62946;BME280;52164;52.212;-1.010;2023-04-01T14:48:57;100058.99;;;10.92;65.85
62946;BME280;52164;52.212;-1.010;2023-04-01T14:51:39;100058.44;;;10.96;66.04
62946;BME280;52164;52.212;-1.010;2023-04-01T14:54:14;100062.75;;;10.93;65.54
62946;BME280;52164;52.212;-1.010;2023-04-01T14:56:48;100064.92;;;10.88;65.58
62946;BME280;52164;52.212;-1.010;2023-04-01T15:04:14;100067.95;;;11.10;65.56
62946;BME280;52164;52.212;-1.010;2023-04-01T15:06:56;100072.80;;;11.25;65.34
62946;BME280;52164;52.212;-1.010;2023-04-01T15:12:15;100072.11;;;11.73;64.78
62946;BME280;52164;52.212;-1.010;2023-04-01T15:12:49;100070.64;;;11.45;64.94
62946;BME280;52164;52.212;-1.010;2023-04-01T15:24:16;100077.13;;;12.67;63.71
62946;BME280;52164;52.212;-1.010;2023-04-01T15:25:06;100083.89;;;12.59;63.03
62946;BME280;52164;52.212;-1.010;2023-04-01T15:27:57;100091.10;;;12.42;63.05
62946;BME280;52164;52.212;-1.010;2023-04-01T15:30:58;100097.98;;;12.24;63.01
62946;BME280;52164;52.212;-1.010;2023-04-01T15:35:43;100104.34;;;12.02;62.99
62946;BME280;52164;52.212;-1.010;2023-04-01T15:39:17;100115.50;;;11.97;63.03
62946;BME280;52164;52.212;-1.010;2023-04-01T15:41:07;100121.86;;;11.86;63.41
62946;BME280;52164;52.212;-1.010;2023-04-01T15:50:45;100123.40;;;12.23;62.74
62946;BME280;52164;52.212;-1.010;2023-04-01T15:56:40;100133.42;;;12.87;61.24
62946;BME280;52164;52.212;-1.010;2023-04-01T15:59:00;100132.86;;;13.32;60.35
62946;BME280;52164;52.212;-1.010;2023-04-01T16:02:35;100137.15;;;13.34;60.25
62946;BME280;52164;52.212;-1.010;2023-04-01T16:04:28;100143.04;;;13.23;59.55
62946;BME280;52164;52.212;-1.010;2023-04-01T16:10:18;100153.96;;;13.01;59.67
62946;BME280;52164;52.212;-1.010;2023-04-01T16:11:36;100144.89;;;13.09;59.79
62946;BME280;52164;52.212;-1.010;2023-04-01T16:13:04;100155.73;;;13.05;59.49
62946;BME280;52164;52.212;-1.010;2023-04-01T16:20:20;100171.91;;;12.49;60.33
62946;BME280;52164;52.212;-1.010;2023-04-01T16:22:52;100183.97;;;12.15;60.58
62946;BME280;52164;52.212;-1.010;2023-04-01T16:25:52;100188.54;;;11.88;60.87
62946;BME280;52164;52.212;-1.010;2023-04-01T16:28:16;100192.84;;;11.68;61.45
62946;BME280;52164;52.212;-1.010;2023-04-01T16:31:25;100194.23;;;11.53;61.46
62946;BME280;52164;52.212;-1.010;2023-04-01T16:33:40;100193.12;;;11.36;61.44